sensor_id;sensor_type;location;lat;lon;timestamp;temperature;humidity
8226;DHT22;4154;48.810;9.012;2022-07-06T00:01:46;19.30;78.60
8226;DHT22;4154;48.810;9.012;2022-07-06T00:04:12;19.30;78.30
8226;DHT22;4154;48.810;9.012;2022-07-06T00:06:38;19.40;78.20
8226;DHT22;4154;48.810;9.012;2022-07-06T00:09:05;19.40;78.50
8226;DHT22;4154;48.810;9.012;2022-07-06T00:11:32;19.40;77.90
8226;DHT22;4154;48.810;9.012;2022-07-06T00:13:58;19.40;77.70
8226;DHT22;4154;48.810;9.012;2022-07-06T00:16:24;19.40;78.00
8226;DHT22;4154;48.810;9.012;2022-07-06T00:18:51;19.40;77.30
8226;DHT22;4154;48.810;9.012;2022-07-06T00:21:17;19.40;77.30
8226;DHT22;4154;48.810;9.012;2022-07-06T00:23:43;19.40;77.10
8226;DHT22;4154;48.810;9.012;2022-07-06T00:26:09;19.40;77.00
8226;DHT22;4154;48.810;9.012;2022-07-06T00:28:35;19.40;76.70
8226;DHT22;4154;48.810;9.012;2022-07-06T00:31:01;19.40;76.80
8226;DHT22;4154;48.810;9.012;2022-07-06T00:33:27;19.40;77.50
8226;DHT22;4154;48.810;9.012;2022-07-06T00:35:53;19.40;77.10
8226;DHT22;4154;48.810;9.012;2022-07-06T00:38:18;19.40;78.20
8226;DHT22;4154;48.810;9.012;2022-07-06T00:40:44;19.40;79.20
8226;DHT22;4154;48.810;9.012;2022-07-06T00:43:10;19.30;79.80
8226;DHT22;4154;48.810;9.012;2022-07-06T00:45:36;19.20;80.10
8226;DHT22;4154;48.810;9.012;2022-07-06T00:48:02;19.10;80.20
8226;DHT22;4154;48.810;9.012;2022-07-06T00:50:28;19.00;80.40
8226;DHT22;4154;48.810;9.012;2022-07-06T00:53:03;19.00;80.70
8226;DHT22;4154;48.810;9.012;2022-07-06T00:55:33;18.90;81.10
8226;DHT22;4154;48.810;9.012;2022-07-06T00:58:04;18.90;80.00
8226;DHT22;4154;48.810;9.012;2022-07-06T01:00:32;18.80;78.90
8226;DHT22;4154;48.810;9.012;2022-07-06T01:02:58;18.80;80.10
8226;DHT22;4154;48.810;9.012;2022-07-06T01:05:24;18.80;80.30
8226;DHT22;4154;48.810;9.012;2022-07-06T01:07:51;18.80;79.80
8226;DHT22;4154;48.810;9.012;2022-07-06T01:10:20;18.80;78.60
8226;DHT22;4154;48.810;9.012;2022-07-06T01:12:47;18.80;78.00
8226;DHT22;4154;48.810;9.012;2022-07-06T01:15:18;18.70;77.40
8226;DHT22;4154;48.810;9.012;2022-07-06T01:17:47;18.80;77.40
8226;DHT22;4154;48.810;9.012;2022-07-06T01:20:18;18.70;77.60
8226;DHT22;4154;48.810;9.012;2022-07-06T01:22:50;18.60;77.10
8226;DHT22;4154;48.810;9.012;2022-07-06T01:25:17;18.60;77.30
8226;DHT22;4154;48.810;9.012;2022-07-06T01:27:44;18.60;77.50
8226;DHT22;4154;48.810;9.012;2022-07-06T01:30:11;18.50;77.10
8226;DHT22;4154;48.810;9.012;2022-07-06T01:32:40;18.50;77.50
8226;DHT22;4154;48.810;9.012;2022-07-06T01:35:09;18.50;78.10
8226;DHT22;4154;48.810;9.012;2022-07-06T01:37:36;18.50;78.10
8226;DHT22;4154;48.810;9.012;2022-07-06T01:40:04;18.40;78.00
8226;DHT22;4154;48.810;9.012;2022-07-06T01:42:32;18.40;77.80
8226;DHT22;4154;48.810;9.012;2022-07-06T01:44:58;18.30;77.90
8226;DHT22;4154;48.810;9.012;2022-07-06T01:47:24;18.30;77.90
8226;DHT22;4154;48.810;9.012;2022-07-06T01:49:50;18.30;78.30
8226;DHT22;4154;48.810;9.012;2022-07-06T01:52:17;18.30;77.90
8226;DHT22;4154;48.810;9.012;2022-07-06T01:54:43;18.30;78.10
8226;DHT22;4154;48.810;9.012;2022-07-06T01:57:09;18.20;78.20
8226;DHT22;4154;48.810;9.012;2022-07-06T01:59:35;18.20;78.40
8226;DHT22;4154;48.810;9.012;2022-07-06T02:02:01;18.20;78.50
8226;DHT22;4154;48.810;9.012;2022-07-06T02:04:27;18.20;78.60
8226;DHT22;4154;48.810;9.012;2022-07-06T02:06:53;18.20;78.80
8226;DHT22;4154;48.810;9.012;2022-07-06T02:09:19;18.20;79.00
8226;DHT22;4154;48.810;9.012;2022-07-06T02:11:44;18.20;78.80
8226;DHT22;4154;48.810;9.012;2022-07-06T02:14:10;18.20;79.40
8226;DHT22;4154;48.810;9.012;2022-07-06T02:16:37;18.20;80.10
8226;DHT22;4154;48.810;9.012;2022-07-06T02:19:03;18.10;79.40
8226;DHT22;4154;48.810;9.012;2022-07-06T02:21:29;18.10;79.50
8226;DHT22;4154;48.810;9.012;2022-07-06T02:23:55;18.10;79.60
8226;DHT22;4154;48.810;9.012;2022-07-06T02:26:21;18.00;80.20
8226;DHT22;4154;48.810;9.012;2022-07-06T02:28:46;18.00;80.10
8226;DHT22;4154;48.810;9.012;2022-07-06T02:31:13;18.00;80.00
8226;DHT22;4154;48.810;9.012;2022-07-06T02:33:40;18.00;80.50
8226;DHT22;4154;48.810;9.012;2022-07-06T02:36:07;17.90;80.30
8226;DHT22;4154;48.810;9.012;2022-07-06T02:38:33;17.90;80.80
8226;DHT22;4154;48.810;9.012;2022-07-06T02:40:59;17.90;80.80
8226;DHT22;4154;48.810;9.012;2022-07-06T02:43:25;17.80;80.90
8226;DHT22;4154;48.810;9.012;2022-07-06T02:45:51;17.80;81.20
8226;DHT22;4154;48.810;9.012;2022-07-06T02:48:17;17.70;81.20
8226;DHT22;4154;48.810;9.012;2022-07-06T02:50:44;17.70;81.40
8226;DHT22;4154;48.810;9.012;2022-07-06T02:53:10;17.70;81.60
8226;DHT22;4154;48.810;9.012;2022-07-06T02:55:36;17.70;82.00
8226;DHT22;4154;48.810;9.012;2022-07-06T02:58:02;17.60;81.90
8226;DHT22;4154;48.810;9.012;2022-07-06T03:00:28;17.60;82.00
8226;DHT22;4154;48.810;9.012;2022-07-06T03:02:53;17.60;82.20
8226;DHT22;4154;48.810;9.012;2022-07-06T03:05:19;17.50;82.20
8226;DHT22;4154;48.810;9.012;2022-07-06T03:07:45;17.50;82.10
8226;DHT22;4154;48.810;9.012;2022-07-06T03:10:11;17.50;82.40
8226;DHT22;4154;48.810;9.012;2022-07-06T03:12:36;17.50;82.40
8226;DHT22;4154;48.810;9.012;2022-07-06T03:15:02;17.50;82.40
8226;DHT22;4154;48.810;9.012;2022-07-06T03:17:28;17.50;82.50
8226;DHT22;4154;48.810;9.012;2022-07-06T03:19:54;17.40;82.60
8226;DHT22;4154;48.810;9.012;2022-07-06T03:22:20;17.50;83.50
8226;DHT22;4154;48.810;9.012;2022-07-06T03:24:46;17.50;83.50
8226;DHT22;4154;48.810;9.012;2022-07-06T03:27:11;17.40;83.40
8226;DHT22;4154;48.810;9.012;2022-07-06T03:29:37;17.40;83.70
8226;DHT22;4154;48.810;9.012;2022-07-06T03:32:03;17.40;84.00
8226;DHT22;4154;48.810;9.012;2022-07-06T03:34:29;17.30;83.80
8226;DHT22;4154;48.810;9.012;2022-07-06T03:36:55;17.20;84.00
8226;DHT22;4154;48.810;9.012;2022-07-06T03:39:21;17.20;84.30
8226;DHT22;4154;48.810;9.012;2022-07-06T03:41:46;17.20;84.80
8226;DHT22;4154;48.810;9.012;2022-07-06T03:44:13;17.10;84.80
8226;DHT22;4154;48.810;9.012;2022-07-06T03:46:39;17.10;85.00
8226;DHT22;4154;48.810;9.012;2022-07-06T03:49:05;17.00;85.50
8226;DHT22;4154;48.810;9.012;2022-07-06T03:51:30;17.00;85.60
8226;DHT22;4154;48.810;9.012;2022-07-06T03:53:56;16.90;85.70
8226;DHT22;4154;48.810;9.012;2022-07-06T03:56:22;16.90;86.00
8226;DHT22;4154;48.810;9.012;2022-07-06T03:58:54;16.90;86.10
8226;DHT22;4154;48.810;9.012;2022-07-06T04:01:21;16.90;86.10
8226;DHT22;4154;48.810;9.012;2022-07-06T04:03:47;16.90;86.20
8226;DHT22;4154;48.810;9.012;2022-07-06T04:06:13;16.90;86.30
8226;DHT22;4154;48.810;9.012;2022-07-06T04:08:39;16.90;86.20
8226;DHT22;4154;48.810;9.012;2022-07-06T04:11:05;16.90;86.50
8226;DHT22;4154;48.810;9.012;2022-07-06T04:13:31;16.90;86.70
8226;DHT22;4154;48.810;9.012;2022-07-06T04:15:57;16.90;86.30
8226;DHT22;4154;48.810;9.012;2022-07-06T04:18:23;16.90;86.50
8226;DHT22;4154;48.810;9.012;2022-07-06T04:20:49;17.00;86.70
8226;DHT22;4154;48.810;9.012;2022-07-06T04:23:15;17.00;86.70
8226;DHT22;4154;48.810;9.012;2022-07-06T04:25:41;16.90;86.80
8226;DHT22;4154;48.810;9.012;2022-07-06T04:28:07;17.00;87.60
8226;DHT22;4154;48.810;9.012;2022-07-06T04:30:33;16.90;87.90
8226;DHT22;4154;48.810;9.012;2022-07-06T04:32:59;16.90;88.00
8226;DHT22;4154;48.810;9.012;2022-07-06T04:35:25;16.90;88.00
8226;DHT22;4154;48.810;9.012;2022-07-06T04:37:50;16.90;88.20
8226;DHT22;4154;48.810;9.012;2022-07-06T04:40:16;16.90;88.10
8226;DHT22;4154;48.810;9.012;2022-07-06T04:42:42;16.90;88.40
8226;DHT22;4154;48.810;9.012;2022-07-06T04:45:08;16.90;88.80
8226;DHT22;4154;48.810;9.012;2022-07-06T04:47:35;16.90;88.90
8226;DHT22;4154;48.810;9.012;2022-07-06T04:50:01;16.90;88.50
8226;DHT22;4154;48.810;9.012;2022-07-06T04:52:28;16.90;88.70
8226;DHT22;4154;48.810;9.012;2022-07-06T04:54:54;17.00;88.70
8226;DHT22;4154;48.810;9.012;2022-07-06T04:57:20;17.00;88.30
8226;DHT22;4154;48.810;9.012;2022-07-06T04:59:47;17.00;88.50
8226;DHT22;4154;48.810;9.012;2022-07-06T05:02:13;17.00;88.80
8226;DHT22;4154;48.810;9.012;2022-07-06T05:04:39;17.00;88.70
8226;DHT22;4154;48.810;9.012;2022-07-06T05:07:05;17.10;89.10
8226;DHT22;4154;48.810;9.012;2022-07-06T05:09:31;17.00;88.70
8226;DHT22;4154;48.810;9.012;2022-07-06T05:11:56;17.10;89.10
8226;DHT22;4154;48.810;9.012;2022-07-06T05:14:22;17.10;89.50
8226;DHT22;4154;48.810;9.012;2022-07-06T05:16:48;17.10;89.40
8226;DHT22;4154;48.810;9.012;2022-07-06T05:19:14;17.10;89.30
8226;DHT22;4154;48.810;9.012;2022-07-06T05:21:39;17.10;88.90
8226;DHT22;4154;48.810;9.012;2022-07-06T05:24:05;17.10;88.90
8226;DHT22;4154;48.810;9.012;2022-07-06T05:26:32;17.20;89.00
8226;DHT22;4154;48.810;9.012;2022-07-06T05:28:58;17.20;89.00
8226;DHT22;4154;48.810;9.012;2022-07-06T05:31:24;17.20;88.50
8226;DHT22;4154;48.810;9.012;2022-07-06T05:33:49;17.20;88.70
8226;DHT22;4154;48.810;9.012;2022-07-06T05:36:15;17.20;88.90
8226;DHT22;4154;48.810;9.012;2022-07-06T05:38:41;17.20;89.40
8226;DHT22;4154;48.810;9.012;2022-07-06T05:41:07;17.30;88.90
8226;DHT22;4154;48.810;9.012;2022-07-06T05:43:36;17.30;89.40
8226;DHT22;4154;48.810;9.012;2022-07-06T05:46:02;17.30;89.40
8226;DHT22;4154;48.810;9.012;2022-07-06T05:48:28;17.30;89.00
8226;DHT22;4154;48.810;9.012;2022-07-06T05:51:13;17.30;88.70
8226;DHT22;4154;48.810;9.012;2022-07-06T05:53:38;17.40;88.60
8226;DHT22;4154;48.810;9.012;2022-07-06T05:56:04;17.30;88.40
8226;DHT22;4154;48.810;9.012;2022-07-06T05:58:30;17.40;88.50
8226;DHT22;4154;48.810;9.012;2022-07-06T06:00:56;17.40;88.90
8226;DHT22;4154;48.810;9.012;2022-07-06T06:03:22;17.40;88.60
8226;DHT22;4154;48.810;9.012;2022-07-06T06:05:49;17.40;88.10
8226;DHT22;4154;48.810;9.012;2022-07-06T06:08:15;17.40;88.00
8226;DHT22;4154;48.810;9.012;2022-07-06T06:10:41;17.50;88.20
8226;DHT22;4154;48.810;9.012;2022-07-06T06:13:06;17.50;88.00
8226;DHT22;4154;48.810;9.012;2022-07-06T06:15:33;17.50;88.60
8226;DHT22;4154;48.810;9.012;2022-07-06T06:17:59;17.60;88.70
8226;DHT22;4154;48.810;9.012;2022-07-06T06:20:25;17.60;88.30
8226;DHT22;4154;48.810;9.012;2022-07-06T06:22:53;17.60;88.10
8226;DHT22;4154;48.810;9.012;2022-07-06T06:25:30;17.70;88.10
8226;DHT22;4154;48.810;9.012;2022-07-06T06:27:57;17.70;88.00
8226;DHT22;4154;48.810;9.012;2022-07-06T06:30:23;17.80;87.50
8226;DHT22;4154;48.810;9.012;2022-07-06T06:32:49;17.80;87.50
8226;DHT22;4154;48.810;9.012;2022-07-06T06:35:15;17.80;87.10
8226;DHT22;4154;48.810;9.012;2022-07-06T06:37:41;17.90;86.80
8226;DHT22;4154;48.810;9.012;2022-07-06T06:40:08;17.90;86.60
8226;DHT22;4154;48.810;9.012;2022-07-06T06:42:37;17.90;86.30
8226;DHT22;4154;48.810;9.012;2022-07-06T06:45:05;17.90;86.20
8226;DHT22;4154;48.810;9.012;2022-07-06T06:47:31;17.90;86.30
8226;DHT22;4154;48.810;9.012;2022-07-06T06:49:58;17.90;86.10
8226;DHT22;4154;48.810;9.012;2022-07-06T06:52:24;18.00;86.60
8226;DHT22;4154;48.810;9.012;2022-07-06T06:54:49;18.00;86.60
8226;DHT22;4154;48.810;9.012;2022-07-06T06:57:15;18.00;86.30
8226;DHT22;4154;48.810;9.012;2022-07-06T06:59:41;18.00;86.70
8226;DHT22;4154;48.810;9.012;2022-07-06T07:02:07;18.00;86.90
8226;DHT22;4154;48.810;9.012;2022-07-06T07:04:33;18.00;86.50
8226;DHT22;4154;48.810;9.012;2022-07-06T07:06:58;18.00;86.80
8226;DHT22;4154;48.810;9.012;2022-07-06T07:09:24;18.00;86.90
8226;DHT22;4154;48.810;9.012;2022-07-06T07:11:50;18.10;88.10
8226;DHT22;4154;48.810;9.012;2022-07-06T07:14:16;18.10;86.70
8226;DHT22;4154;48.810;9.012;2022-07-06T07:16:42;18.10;87.10
8226;DHT22;4154;48.810;9.012;2022-07-06T07:19:08;18.10;87.20
8226;DHT22;4154;48.810;9.012;2022-07-06T07:21:33;18.20;87.30
8226;DHT22;4154;48.810;9.012;2022-07-06T07:24:01;18.20;87.20
8226;DHT22;4154;48.810;9.012;2022-07-06T07:26:27;18.20;86.40
8226;DHT22;4154;48.810;9.012;2022-07-06T07:28:53;18.20;86.30
8226;DHT22;4154;48.810;9.012;2022-07-06T07:31:19;18.30;86.60
8226;DHT22;4154;48.810;9.012;2022-07-06T07:33:47;18.30;86.30
8226;DHT22;4154;48.810;9.012;2022-07-06T07:36:13;18.40;85.80
8226;DHT22;4154;48.810;9.012;2022-07-06T07:38:39;18.40;85.30
8226;DHT22;4154;48.810;9.012;2022-07-06T07:41:05;18.40;85.10
8226;DHT22;4154;48.810;9.012;2022-07-06T07:43:32;18.50;85.40
8226;DHT22;4154;48.810;9.012;2022-07-06T07:45:57;18.50;85.50
8226;DHT22;4154;48.810;9.012;2022-07-06T07:48:23;18.50;85.70
8226;DHT22;4154;48.810;9.012;2022-07-06T07:50:50;18.60;85.90
8226;DHT22;4154;48.810;9.012;2022-07-06T07:53:16;18.60;86.00
8226;DHT22;4154;48.810;9.012;2022-07-06T07:55:41;18.60;86.30
8226;DHT22;4154;48.810;9.012;2022-07-06T07:58:07;18.70;86.10
8226;DHT22;4154;48.810;9.012;2022-07-06T08:00:34;18.70;85.90
8226;DHT22;4154;48.810;9.012;2022-07-06T08:02:59;18.80;85.40
8226;DHT22;4154;48.810;9.012;2022-07-06T08:05:25;18.80;86.10
8226;DHT22;4154;48.810;9.012;2022-07-06T08:07:52;18.90;86.40
8226;DHT22;4154;48.810;9.012;2022-07-06T08:10:18;18.90;85.60
8226;DHT22;4154;48.810;9.012;2022-07-06T08:12:44;18.90;85.60
8226;DHT22;4154;48.810;9.012;2022-07-06T08:15:10;19.00;86.20
8226;DHT22;4154;48.810;9.012;2022-07-06T08:17:36;19.00;85.90
8226;DHT22;4154;48.810;9.012;2022-07-06T08:20:02;19.10;85.40
8226;DHT22;4154;48.810;9.012;2022-07-06T08:22:28;19.20;85.40
8226;DHT22;4154;48.810;9.012;2022-07-06T08:24:55;19.20;84.40
8226;DHT22;4154;48.810;9.012;2022-07-06T08:27:21;19.30;83.40
8226;DHT22;4154;48.810;9.012;2022-07-06T08:29:47;19.30;83.60
8226;DHT22;4154;48.810;9.012;2022-07-06T08:32:12;19.30;85.00
8226;DHT22;4154;48.810;9.012;2022-07-06T08:34:38;19.40;84.80
8226;DHT22;4154;48.810;9.012;2022-07-06T08:37:04;19.40;84.70
8226;DHT22;4154;48.810;9.012;2022-07-06T08:39:30;19.40;84.60
8226;DHT22;4154;48.810;9.012;2022-07-06T08:41:56;19.50;84.00
8226;DHT22;4154;48.810;9.012;2022-07-06T08:44:24;19.50;84.70
8226;DHT22;4154;48.810;9.012;2022-07-06T08:46:52;19.50;85.70
8226;DHT22;4154;48.810;9.012;2022-07-06T08:49:20;19.60;85.70
8226;DHT22;4154;48.810;9.012;2022-07-06T08:51:47;19.60;85.10
8226;DHT22;4154;48.810;9.012;2022-07-06T08:54:14;19.70;85.20
8226;DHT22;4154;48.810;9.012;2022-07-06T08:56:40;19.80;84.00
8226;DHT22;4154;48.810;9.012;2022-07-06T08:59:06;19.80;84.00
8226;DHT22;4154;48.810;9.012;2022-07-06T09:01:35;19.80;83.70
8226;DHT22;4154;48.810;9.012;2022-07-06T09:04:03;19.80;84.00
8226;DHT22;4154;48.810;9.012;2022-07-06T09:06:31;19.90;84.70
8226;DHT22;4154;48.810;9.012;2022-07-06T09:08:59;20.00;83.20
8226;DHT22;4154;48.810;9.012;2022-07-06T09:11:30;20.00;83.70
8226;DHT22;4154;48.810;9.012;2022-07-06T09:13:56;20.00;84.50
8226;DHT22;4154;48.810;9.012;2022-07-06T09:16:27;20.00;84.40
8226;DHT22;4154;48.810;9.012;2022-07-06T09:18:54;20.10;85.40
8226;DHT22;4154;48.810;9.012;2022-07-06T09:21:31;20.20;86.10
8226;DHT22;4154;48.810;9.012;2022-07-06T09:24:00;20.20;84.40
8226;DHT22;4154;48.810;9.012;2022-07-06T09:26:28;20.20;85.20
8226;DHT22;4154;48.810;9.012;2022-07-06T09:28:55;20.30;84.60
8226;DHT22;4154;48.810;9.012;2022-07-06T09:31:22;20.40;83.70
8226;DHT22;4154;48.810;9.012;2022-07-06T09:33:58;20.50;83.50
8226;DHT22;4154;48.810;9.012;2022-07-06T09:36:44;20.50;83.20
8226;DHT22;4154;48.810;9.012;2022-07-06T09:39:28;20.50;84.20
8226;DHT22;4154;48.810;9.012;2022-07-06T09:42:00;20.50;83.10
8226;DHT22;4154;48.810;9.012;2022-07-06T09:44:34;20.50;83.40
8226;DHT22;4154;48.810;9.012;2022-07-06T09:47:06;20.50;83.80
8226;DHT22;4154;48.810;9.012;2022-07-06T09:49:35;20.50;83.30
8226;DHT22;4154;48.810;9.012;2022-07-06T09:52:07;20.50;83.70
8226;DHT22;4154;48.810;9.012;2022-07-06T09:54:35;20.50;83.20
8226;DHT22;4154;48.810;9.012;2022-07-06T09:57:03;20.50;84.00
8226;DHT22;4154;48.810;9.012;2022-07-06T09:59:30;20.60;83.80
8226;DHT22;4154;48.810;9.012;2022-07-06T10:02:01;20.70;84.00
8226;DHT22;4154;48.810;9.012;2022-07-06T10:04:29;20.70;84.00
8226;DHT22;4154;48.810;9.012;2022-07-06T10:06:56;20.80;83.70
8226;DHT22;4154;48.810;9.012;2022-07-06T10:09:25;20.90;84.00
8226;DHT22;4154;48.810;9.012;2022-07-06T10:11:57;20.90;82.80
8226;DHT22;4154;48.810;9.012;2022-07-06T10:14:29;20.90;82.70
8226;DHT22;4154;48.810;9.012;2022-07-06T10:16:58;20.90;83.30
8226;DHT22;4154;48.810;9.012;2022-07-06T10:19:26;21.00;82.80
8226;DHT22;4154;48.810;9.012;2022-07-06T10:21:56;20.90;82.80
8226;DHT22;4154;48.810;9.012;2022-07-06T10:24:24;20.80;82.90
8226;DHT22;4154;48.810;9.012;2022-07-06T10:26:52;20.90;84.00
8226;DHT22;4154;48.810;9.012;2022-07-06T10:29:18;20.90;83.20
8226;DHT22;4154;48.810;9.012;2022-07-06T10:31:46;21.00;84.10
8226;DHT22;4154;48.810;9.012;2022-07-06T10:34:15;21.10;82.20
8226;DHT22;4154;48.810;9.012;2022-07-06T10:36:44;21.10;82.10
8226;DHT22;4154;48.810;9.012;2022-07-06T10:39:14;21.20;82.60
8226;DHT22;4154;48.810;9.012;2022-07-06T10:41:59;21.30;82.00
8226;DHT22;4154;48.810;9.012;2022-07-06T10:44:26;21.40;82.20
8226;DHT22;4154;48.810;9.012;2022-07-06T10:46:54;21.40;81.20
8226;DHT22;4154;48.810;9.012;2022-07-06T10:49:23;21.50;81.60
8226;DHT22;4154;48.810;9.012;2022-07-06T10:51:51;21.50;80.60
8226;DHT22;4154;48.810;9.012;2022-07-06T10:54:18;21.60;81.30
8226;DHT22;4154;48.810;9.012;2022-07-06T10:56:47;21.60;80.20
8226;DHT22;4154;48.810;9.012;2022-07-06T10:59:20;21.50;78.70
8226;DHT22;4154;48.810;9.012;2022-07-06T11:02:16;21.50;80.20
8226;DHT22;4154;48.810;9.012;2022-07-06T11:04:47;21.50;80.70
8226;DHT22;4154;48.810;9.012;2022-07-06T11:07:18;21.50;79.70
8226;DHT22;4154;48.810;9.012;2022-07-06T11:09:59;21.40;80.80
8226;DHT22;4154;48.810;9.012;2022-07-06T11:12:25;21.40;80.90
8226;DHT22;4154;48.810;9.012;2022-07-06T11:14:52;21.40;80.60
8226;DHT22;4154;48.810;9.012;2022-07-06T11:17:19;21.40;80.00
8226;DHT22;4154;48.810;9.012;2022-07-06T11:19:57;21.30;81.00
8226;DHT22;4154;48.810;9.012;2022-07-06T11:22:36;21.30;82.30
8226;DHT22;4154;48.810;9.012;2022-07-06T11:25:04;21.30;82.10
8226;DHT22;4154;48.810;9.012;2022-07-06T11:27:33;21.30;81.20
8226;DHT22;4154;48.810;9.012;2022-07-06T11:30:00;21.30;80.80
8226;DHT22;4154;48.810;9.012;2022-07-06T11:32:27;21.30;80.80
8226;DHT22;4154;48.810;9.012;2022-07-06T11:34:53;21.20;81.40
8226;DHT22;4154;48.810;9.012;2022-07-06T11:37:19;21.20;80.40
8226;DHT22;4154;48.810;9.012;2022-07-06T11:39:47;21.20;81.80
8226;DHT22;4154;48.810;9.012;2022-07-06T11:42:17;21.20;82.30
8226;DHT22;4154;48.810;9.012;2022-07-06T11:44:45;21.30;82.00
8226;DHT22;4154;48.810;9.012;2022-07-06T11:47:12;21.40;83.60
8226;DHT22;4154;48.810;9.012;2022-07-06T11:49:39;21.40;82.30
8226;DHT22;4154;48.810;9.012;2022-07-06T11:52:13;21.40;81.70
8226;DHT22;4154;48.810;9.012;2022-07-06T11:54:40;21.40;82.50
8226;DHT22;4154;48.810;9.012;2022-07-06T11:57:11;21.50;83.50
8226;DHT22;4154;48.810;9.012;2022-07-06T11:59:40;21.60;81.70
8226;DHT22;4154;48.810;9.012;2022-07-06T12:02:11;21.70;83.10
8226;DHT22;4154;48.810;9.012;2022-07-06T12:04:42;21.90;81.60
8226;DHT22;4154;48.810;9.012;2022-07-06T12:07:15;22.00;81.70
8226;DHT22;4154;48.810;9.012;2022-07-06T12:09:44;22.20;81.10
8226;DHT22;4154;48.810;9.012;2022-07-06T12:12:11;22.30;81.20
8226;DHT22;4154;48.810;9.012;2022-07-06T12:14:40;22.20;80.90
8226;DHT22;4154;48.810;9.012;2022-07-06T12:17:11;22.30;80.50
8226;DHT22;4154;48.810;9.012;2022-07-06T12:19:39;22.40;80.10
8226;DHT22;4154;48.810;9.012;2022-07-06T12:22:06;22.40;78.90
8226;DHT22;4154;48.810;9.012;2022-07-06T12:24:34;22.40;80.20
8226;DHT22;4154;48.810;9.012;2022-07-06T12:27:13;22.40;80.10
8226;DHT22;4154;48.810;9.012;2022-07-06T12:29:40;22.30;79.50
8226;DHT22;4154;48.810;9.012;2022-07-06T12:32:13;22.20;79.40
8226;DHT22;4154;48.810;9.012;2022-07-06T12:35:01;22.00;79.30
8226;DHT22;4154;48.810;9.012;2022-07-06T12:37:28;21.90;79.80
8226;DHT22;4154;48.810;9.012;2022-07-06T12:39:54;21.90;79.10
8226;DHT22;4154;48.810;9.012;2022-07-06T12:42:20;21.80;78.20
8226;DHT22;4154;48.810;9.012;2022-07-06T12:44:48;21.70;79.70
8226;DHT22;4154;48.810;9.012;2022-07-06T12:47:21;21.70;78.40
8226;DHT22;4154;48.810;9.012;2022-07-06T12:50:03;21.70;80.20
8226;DHT22;4154;48.810;9.012;2022-07-06T12:52:33;21.80;80.20
8226;DHT22;4154;48.810;9.012;2022-07-06T12:55:01;21.90;79.90
8226;DHT22;4154;48.810;9.012;2022-07-06T12:57:27;22.10;78.90
8226;DHT22;4154;48.810;9.012;2022-07-06T13:00:09;22.30;78.40
8226;DHT22;4154;48.810;9.012;2022-07-06T13:02:35;22.30;77.90
8226;DHT22;4154;48.810;9.012;2022-07-06T13:05:07;22.30;77.60
8226;DHT22;4154;48.810;9.012;2022-07-06T13:07:37;22.30;76.80
8226;DHT22;4154;48.810;9.012;2022-07-06T13:10:11;22.20;76.70
8226;DHT22;4154;48.810;9.012;2022-07-06T13:12:39;22.20;78.20
8226;DHT22;4154;48.810;9.012;2022-07-06T13:15:07;22.10;78.00
8226;DHT22;4154;48.810;9.012;2022-07-06T13:17:35;22.10;78.30
8226;DHT22;4154;48.810;9.012;2022-07-06T13:20:03;22.10;79.00
8226;DHT22;4154;48.810;9.012;2022-07-06T13:22:30;22.10;77.50
8226;DHT22;4154;48.810;9.012;2022-07-06T13:24:56;22.20;77.10
8226;DHT22;4154;48.810;9.012;2022-07-06T13:27:21;22.40;77.60
8226;DHT22;4154;48.810;9.012;2022-07-06T13:29:47;22.50;76.70
8226;DHT22;4154;48.810;9.012;2022-07-06T13:32:13;22.50;76.80
8226;DHT22;4154;48.810;9.012;2022-07-06T13:34:39;22.40;77.10
8226;DHT22;4154;48.810;9.012;2022-07-06T13:37:05;22.50;77.50
8226;DHT22;4154;48.810;9.012;2022-07-06T13:39:31;22.50;75.70
8226;DHT22;4154;48.810;9.012;2022-07-06T13:41:58;22.50;77.10
8226;DHT22;4154;48.810;9.012;2022-07-06T13:44:24;22.50;76.90
8226;DHT22;4154;48.810;9.012;2022-07-06T13:46:50;22.60;76.90
8226;DHT22;4154;48.810;9.012;2022-07-06T13:49:17;22.60;77.20
8226;DHT22;4154;48.810;9.012;2022-07-06T13:51:43;22.80;77.80
8226;DHT22;4154;48.810;9.012;2022-07-06T13:54:10;22.90;76.10
8226;DHT22;4154;48.810;9.012;2022-07-06T13:56:38;23.10;75.70
8226;DHT22;4154;48.810;9.012;2022-07-06T13:59:04;23.10;74.70
8226;DHT22;4154;48.810;9.012;2022-07-06T14:01:30;23.20;75.10
8226;DHT22;4154;48.810;9.012;2022-07-06T14:03:56;23.20;74.80
8226;DHT22;4154;48.810;9.012;2022-07-06T14:06:22;23.30;74.70
8226;DHT22;4154;48.810;9.012;2022-07-06T14:08:48;23.30;75.80
8226;DHT22;4154;48.810;9.012;2022-07-06T14:11:14;23.20;74.90
8226;DHT22;4154;48.810;9.012;2022-07-06T14:13:40;23.20;74.90
8226;DHT22;4154;48.810;9.012;2022-07-06T14:16:06;23.10;75.80
8226;DHT22;4154;48.810;9.012;2022-07-06T14:18:32;23.00;75.90
8226;DHT22;4154;48.810;9.012;2022-07-06T14:20:58;23.10;76.20
8226;DHT22;4154;48.810;9.012;2022-07-06T14:23:26;23.20;75.60
8226;DHT22;4154;48.810;9.012;2022-07-06T14:25:52;23.30;76.00
8226;DHT22;4154;48.810;9.012;2022-07-06T14:28:20;23.40;74.00
8226;DHT22;4154;48.810;9.012;2022-07-06T14:30:46;23.40;74.80
8226;DHT22;4154;48.810;9.012;2022-07-06T14:33:13;23.40;74.50
8226;DHT22;4154;48.810;9.012;2022-07-06T14:35:44;23.40;74.30
8226;DHT22;4154;48.810;9.012;2022-07-06T14:38:13;23.40;75.00
8226;DHT22;4154;48.810;9.012;2022-07-06T14:40:40;23.50;75.20
8226;DHT22;4154;48.810;9.012;2022-07-06T14:43:06;23.60;75.20
8226;DHT22;4154;48.810;9.012;2022-07-06T14:45:32;23.60;74.10
8226;DHT22;4154;48.810;9.012;2022-07-06T14:47:58;23.70;74.10
8226;DHT22;4154;48.810;9.012;2022-07-06T14:50:24;23.80;74.10
8226;DHT22;4154;48.810;9.012;2022-07-06T14:52:51;23.80;74.20
8226;DHT22;4154;48.810;9.012;2022-07-06T14:55:19;23.90;71.70
8226;DHT22;4154;48.810;9.012;2022-07-06T14:57:46;23.90;71.50
8226;DHT22;4154;48.810;9.012;2022-07-06T15:00:12;23.90;72.50
8226;DHT22;4154;48.810;9.012;2022-07-06T15:02:39;24.00;73.40
8226;DHT22;4154;48.810;9.012;2022-07-06T15:05:05;24.10;71.60
8226;DHT22;4154;48.810;9.012;2022-07-06T15:07:31;24.10;70.90
8226;DHT22;4154;48.810;9.012;2022-07-06T15:09:59;24.10;71.60
8226;DHT22;4154;48.810;9.012;2022-07-06T15:12:25;24.00;72.10
8226;DHT22;4154;48.810;9.012;2022-07-06T15:14:51;24.00;72.40
8226;DHT22;4154;48.810;9.012;2022-07-06T15:17:16;24.00;72.30
8226;DHT22;4154;48.810;9.012;2022-07-06T15:19:44;24.00;71.50
8226;DHT22;4154;48.810;9.012;2022-07-06T15:22:11;24.00;72.70
8226;DHT22;4154;48.810;9.012;2022-07-06T15:24:37;24.10;72.90
8226;DHT22;4154;48.810;9.012;2022-07-06T15:27:04;24.00;70.00
8226;DHT22;4154;48.810;9.012;2022-07-06T15:29:30;23.90;69.80
8226;DHT22;4154;48.810;9.012;2022-07-06T15:31:57;23.80;71.50
8226;DHT22;4154;48.810;9.012;2022-07-06T15:34:23;23.70;69.90
8226;DHT22;4154;48.810;9.012;2022-07-06T15:36:49;23.70;71.40
8226;DHT22;4154;48.810;9.012;2022-07-06T15:39:16;23.60;70.50
8226;DHT22;4154;48.810;9.012;2022-07-06T15:41:43;23.60;71.00
8226;DHT22;4154;48.810;9.012;2022-07-06T15:44:09;23.50;70.10
8226;DHT22;4154;48.810;9.012;2022-07-06T15:46:35;23.40;70.50
8226;DHT22;4154;48.810;9.012;2022-07-06T15:49:02;23.30;70.10
8226;DHT22;4154;48.810;9.012;2022-07-06T15:51:29;23.20;71.50
8226;DHT22;4154;48.810;9.012;2022-07-06T15:53:55;23.20;71.20
8226;DHT22;4154;48.810;9.012;2022-07-06T15:56:21;23.10;70.70
8226;DHT22;4154;48.810;9.012;2022-07-06T15:58:47;23.00;72.00
8226;DHT22;4154;48.810;9.012;2022-07-06T16:01:13;23.00;71.60
8226;DHT22;4154;48.810;9.012;2022-07-06T16:03:39;22.90;71.60